KDVN/DVN METAR and TAF weather

Enter ICAO airport designator
Station Type Date Time Source
KDVN METAR 2018/01/23 00:52 UTC NOAA

KDVN 230052Z AUTO 23011KT 10SM BKN045 04/M01 A2952 RMK AO2 SLP997 T00391011 $


Station Type Date Time Source
KDVN Decoded METAR 2018/01/23 00:52 UTC NOAA

DAVENPORT MUNICIPAL AIRPORT, IA, United States (KDVN) 41-37N 90-35W 228M
Jan 22, 2018 - 07:52 PM EST / 2018.01.23 0052 UTC
Wind: from the SW (230 degrees) at 13 MPH (11 KT):0
Visibility: 10 mile(s):0
Sky conditions: mostly cloudy
Temperature: 39.0 F (3.9 C)
Dew Point: 30.0 F (-1.1 C)
Relative Humidity: 69%
Pressure (altimeter): 29.52 in. Hg (999 hPa)
ob: KDVN 230052Z AUTO 23011KT 10SM BKN045 04/M01 A2952 RMK AO2 SLP997 T00391011
cycle: 1

Station Type Date Time Source
KDVN TAF UTC NOAA

Error!


Example: see airport list